Airfield :
LOGIN :

Register | Disclaimer

   EN    FR    IT 

 










Legend :    VFR   Marginal VFR   IFR   Intensive IFR   Very Intensive IFR
Visi :
Ceiling :
>= 8 km
>= 3000ft
5 to 8 km
1000 to 3000 ft
1500m to 5 km
500 to 1000 ft
800 to 1500m
200 to 500 ft
< 800m
< 200 ft
Symbols :   Thunderstorms  Fog  Heavy snow  Heavy precipitations  Wind > 20 kt
SIGMETs :     Misc.  Thunderstorms  Icing  Turbulence  Mountain Waves  Volcanic Ashes







- Airport Elevation : 124 ft
- IATA code : AVN
- Download approach charts


LFMV - Avignon Caumont

CURRENT METAR :
  • 210230Z AUTO 08003KT CAVOK 11/11 Q1013 NOSIG

EXPIRED METARs :
  • 210200Z AUTO 05002KT 6000 0800 R17/2500D BCFG NSC 11/10 Q1013
  • 210130Z AUTO 13002KT 9999 3200 NSC 12/11 Q1013
  • 210100Z AUTO 00000KT 8000 NSC 11/11 Q1013
  • 210030Z AUTO 07002KT 9999 FEW001 SCT140 12/11 Q1014
  • 210000Z AUTO 12001KT CAVOK 12/11 Q1014

TAF TAF LFMV
Valid from the 21 at 03:00 until the 22 at 03:00 UTC


210200Z 2103/2203 VRB02KT CAVOK
BECMG 2109/2111 SCT040TCU
TEMPO 2111/2203 -SHRA SCT035CB
ATIS : +33 4 90 84 32 84
No reported NOTAMs for that airfield.



MET'MAP, your aeronautical weather chart ! - Copyright ORBIFLY December 2007 - Disclaimer

ORBIFLY MET'MAP TEAM :

Programming & Development : Alexandra Zaïnal
Concept & Development : Baudouin d'Aumeries
Co-Development & Prog : Marc-Olivier Méhu
Technical & hardware support : Manuel Goepfert

Contact : metmap@orbifly.com




SOURCES & CREDITS :

   NOAA